Time;durP1;ratioP1;P1;durP2;ratioP2;P2;SDS_P1;SDS_P2;PMS_P1;PMS_P2;Temp;Humidity;BMP_temperature;BMP_pressure;BME280_temperature;BME280_humidity;BME280_pressure;Samples;Min_cycle;Max_cycle;Signal;HPM_P1;HPM_P2
2023/04/08 04:02:35;;;;;;;1999.90;999.90;;;;;;;;;;6208050;22;20235;-73
2023/04/08 04:05:20;;;;;;;1999.90;999.90;;;;;;;;;;6213712;23;20171;-72
2023/04/08 04:08:05;;;;;;;1999.90;999.90;;;;;;;;;;6213116;23;20172;-74
2023/04/08 04:10:51;;;;;;;1999.90;999.90;;;;;;;;;;6213109;23;20234;-72
2023/04/08 04:13:36;;;;;;;1999.90;999.90;;;;;;;;;;6213070;23;20172;-73
2023/04/08 04:16:21;;;;;;;1999.90;999.90;;;;;;;;;;6212722;23;20412;-72
2023/04/08 04:19:07;;;;;;;1999.90;999.90;;;;;;;;;;6212781;23;20623;-74
2023/04/08 04:21:52;;;;;;;1999.90;999.90;;;;;;;;;;6213152;23;20256;-74
2023/04/08 04:24:37;;;;;;;1999.90;999.90;;;;;;;;;;6212737;23;20258;-74
2023/04/08 04:27:22;;;;;;;1999.90;999.90;;;;;;;;;;6213776;23;20274;-74
2023/04/08 04:30:08;;;;;;;1999.90;999.90;;;;;;;;;;6212331;23;20261;-73
2023/04/08 04:32:53;;;;;;;1999.90;999.90;;;;;;;;;;6213563;23;20170;-73
2023/04/08 04:35:40;;;;;;;1999.90;999.90;;;;;;;;;;6213717;23;20234;-74
2023/04/08 04:38:25;;;;;;;1999.90;999.90;;;;;;;;;;6213168;23;20206;-72
2023/04/08 04:41:11;;;;;;;1999.90;999.90;;;;;;;;;;6213580;23;20214;-74
2023/04/08 04:43:56;;;;;;;1999.90;999.90;;;;;;;;;;6213236;23;20243;-73
2023/04/08 04:46:41;;;;;;;1999.90;999.90;;;;;;;;;;6211379;23;20173;-73
2023/04/08 04:49:26;;;;;;;1999.90;999.90;;;;;;;;;;6211653;23;20872;-73
2023/04/08 04:52:12;;;;;;;1999.90;999.90;;;;;;;;;;6214158;23;20223;-74
2023/04/08 04:54:57;;;;;;;1999.90;999.90;;;;;;;;;;6214436;23;20229;-71
2023/04/08 04:57:43;;;;;;;1999.90;999.90;;;;;;;;;;6215400;23;20170;-73
2023/04/08 05:00:27;;;;;;;1999.90;999.90;;;;;;;;;;6215666;23;20236;-74
2023/04/08 05:03:12;;;;;;;1999.90;999.90;;;;;;;;;;6214207;23;20386;-73
2023/04/08 05:05:57;;;;;;;1999.90;999.90;;;;;;;;;;6215303;23;20190;-72
2023/04/08 05:08:43;;;;;;;1999.90;999.90;;;;;;;;;;6215326;23;20170;-74
2023/04/08 05:11:28;;;;;;;1999.90;999.90;;;;;;;;;;6214072;23;20287;-71
2023/04/08 05:14:13;;;;;;;1999.90;999.90;;;;;;;;;;6214564;23;20234;-73
2023/04/08 05:16:58;;;;;;;1999.90;999.90;;;;;;;;;;6214589;23;20170;-72
2023/04/08 05:19:43;;;;;;;1999.90;999.90;;;;;;;;;;6214562;23;20239;-72
2023/04/08 05:22:28;;;;;;;1999.90;999.90;;;;;;;;;;6214379;23;20205;-72
2023/04/08 05:25:15;;;;;;;1999.90;999.90;;;;;;;;;;6215104;23;20170;-70
2023/04/08 05:28:00;;;;;;;1999.90;999.90;;;;;;;;;;6215162;23;20172;-69
2023/04/08 05:30:48;;;;;;;1999.90;999.90;;;;;;;;;;6215329;23;20697;-72
2023/04/08 05:33:33;;;;;;;1999.90;999.90;;;;;;;;;;6214565;23;20170;-72
2023/04/08 05:36:18;;;;;;;1999.90;999.90;;;;;;;;;;6214691;23;20189;-72
2023/04/08 05:39:03;;;;;;;1999.90;999.90;;;;;;;;;;6214688;23;20218;-72
2023/04/08 05:41:49;;;;;;;1999.90;999.90;;;;;;;;;;6214554;23;20203;-72
2023/04/08 05:44:34;;;;;;;1999.90;999.90;;;;;;;;;;6214656;23;20238;-72
2023/04/08 05:47:19;;;;;;;1999.90;999.90;;;;;;;;;;6214749;23;20171;-72
2023/04/08 05:50:04;;;;;;;1999.90;999.90;;;;;;;;;;6214424;23;20191;-72
2023/04/08 05:52:49;;;;;;;1999.90;999.90;;;;;;;;;;6214257;23;20942;-72
2023/04/08 05:55:34;;;;;;;1999.90;999.90;;;;;;;;;;6214690;23;20177;-71
2023/04/08 05:58:21;;;;;;;1999.90;999.90;;;;;;;;;;6214508;23;20224;-72
2023/04/08 06:01:06;;;;;;;1999.90;999.90;;;;;;;;;;6214351;23;20205;-72
2023/04/08 06:03:54;;;;;;;1999.90;999.90;;;;;;;;;;6214501;23;20173;-68
2023/04/08 06:06:39;;;;;;;1999.90;999.90;;;;;;;;;;6214665;23;20176;-71
2023/04/08 06:09:24;;;;;;;1999.90;999.90;;;;;;;;;;6214311;23;20329;-72
2023/04/08 06:12:09;;;;;;;1999.90;999.90;;;;;;;;;;6214192;23;20254;-72
2023/04/08 06:14:55;;;;;;;1999.90;999.90;;;;;;;;;;6214473;23;20177;-72
2023/04/08 06:17:40;;;;;;;1999.90;999.90;;;;;;;;;;6214412;23;20657;-71
2023/04/08 06:20:25;;;;;;;1999.90;999.90;;;;;;;;;;6213668;23;20240;-71
2023/04/08 06:23:11;;;;;;;1999.90;999.90;;;;;;;;;;6214373;23;20172;-72
2023/04/08 06:25:56;;;;;;;1999.90;999.90;;;;;;;;;;6213172;23;20241;-72
2023/04/08 06:28:41;;;;;;;1999.90;999.90;;;;;;;;;;6214553;23;20248;-71
2023/04/08 06:31:27;;;;;;;1999.90;999.90;;;;;;;;;;6214317;23;20212;-70
2023/04/08 06:34:12;;;;;;;1999.90;999.90;;;;;;;;;;6214503;23;20510;-72
2023/04/08 06:36:57;;;;;;;1999.90;999.90;;;;;;;;;;6213804;23;20689;-72
2023/04/08 06:39:42;;;;;;;1999.90;999.90;;;;;;;;;;6213496;23;20371;-72
2023/04/08 06:42:27;;;;;;;1999.90;999.90;;;;;;;;;;6213748;23;20201;-72
2023/04/08 06:45:12;;;;;;;1999.90;999.90;;;;;;;;;;6214062;23;20288;-71
2023/04/08 06:47:58;;;;;;;1999.90;999.90;;;;;;;;;;6214121;23;20507;-73
2023/04/08 06:50:43;;;;;;;1999.90;999.90;;;;;;;;;;6212522;23;20264;-72
2023/04/08 06:53:30;;;;;;;1999.90;999.90;;;;;;;;;;6212081;23;20177;-73
2023/04/08 06:56:14;;;;;;;1999.90;999.90;;;;;;;;;;6211043;23;20219;-72
2023/04/08 06:59:00;;;;;;;1999.90;999.90;;;;;;;;;;6211642;23;20173;-72
2023/04/08 07:01:45;;;;;;;1999.90;999.90;;;;;;;;;;6211540;23;20221;-72
2023/04/08 07:04:31;;;;;;;1999.90;999.90;;;;;;;;;;6211774;23;20216;-73
2023/04/08 07:07:16;;;;;;;1999.90;999.90;;;;;;;;;;6211088;23;20263;-72
2023/04/08 07:10:01;;;;;;;1999.90;999.90;;;;;;;;;;6212002;23;20193;-73
2023/04/08 07:12:46;;;;;;;1999.90;999.90;;;;;;;;;;6209000;23;20418;-73
2023/04/08 07:15:31;;;;;;;1999.90;999.90;;;;;;;;;;6212078;23;20177;-71
2023/04/08 07:18:16;;;;;;;1999.90;999.90;;;;;;;;;;6210967;23;20176;-72
2023/04/08 07:21:02;;;;;;;1999.90;999.90;;;;;;;;;;6211241;23;20340;-73
2023/04/08 07:23:47;;;;;;;1999.90;999.90;;;;;;;;;;6211073;23;20515;-73
2023/04/08 07:26:32;;;;;;;1999.90;999.90;;;;;;;;;;6210838;23;20442;-72
2023/04/08 07:29:17;;;;;;;1999.90;999.90;;;;;;;;;;6213394;23;20704;-72
2023/04/08 07:32:02;;;;;;;1999.90;999.90;;;;;;;;;;6213249;23;20216;-71
2023/04/08 07:34:47;;;;;;;1999.90;999.90;;;;;;;;;;6213829;23;20165;-73
2023/04/08 07:37:33;;;;;;;1999.90;999.90;;;;;;;;;;6212947;23;20165;-72
2023/04/08 07:40:18;;;;;;;1999.90;999.90;;;;;;;;;;6213566;23;20641;-72
2023/04/08 07:43:03;;;;;;;1999.90;999.90;;;;;;;;;;6212734;23;20169;-71
2023/04/08 07:45:48;;;;;;;1999.90;999.90;;;;;;;;;;6212892;23;20221;-72
2023/04/08 07:48:34;;;;;;;1999.90;999.90;;;;;;;;;;6213496;23;20169;-72
2023/04/08 07:51:18;;;;;;;1999.90;999.90;;;;;;;;;;6212649;23;20256;-72
2023/04/08 07:54:05;;;;;;;1999.90;999.90;;;;;;;;;;6213510;23;20173;-73
2023/04/08 07:56:49;;;;;;;1999.90;999.90;;;;;;;;;;6213606;23;20167;-73
2023/04/08 07:59:34;;;;;;;1999.90;999.90;;;;;;;;;;6213119;23;20169;-72
2023/04/08 08:02:20;;;;;;;1999.90;999.90;;;;;;;;;;6212566;23;20216;-73
2023/04/08 08:05:05;;;;;;;1999.90;999.90;;;;;;;;;;6213738;23;20170;-74
2023/04/08 08:07:50;;;;;;;1999.90;999.90;;;;;;;;;;6213749;23;20249;-73
2023/04/08 08:10:36;;;;;;;1999.90;999.90;;;;;;;;;;6213593;23;20523;-73
2023/04/08 08:13:21;;;;;;;1999.90;999.90;;;;;;;;;;6213600;23;20185;-73
2023/04/08 08:16:07;;;;;;;1999.90;999.90;;;;;;;;;;6213212;23;20164;-73
2023/04/08 08:18:52;;;;;;;1999.90;999.90;;;;;;;;;;6213543;23;20181;-73
2023/04/08 08:21:38;;;;;;;1999.90;999.90;;;;;;;;;;6213580;23;20642;-73
2023/04/08 08:24:22;;;;;;;1999.90;999.90;;;;;;;;;;6213741;23;20505;-72
2023/04/08 08:27:11;;;;;;;1999.90;999.90;;;;;;;;;;6215827;23;20677;-71
2023/04/08 08:29:55;;;;;;;1999.90;999.90;;;;;;;;;;6215596;23;20229;-72
2023/04/08 08:32:40;;;;;;;1999.90;999.90;;;;;;;;;;6215383;23;20201;-72
2023/04/08 08:35:25;;;;;;;1999.90;999.90;;;;;;;;;;6218503;23;20177;-73
2023/04/08 08:38:11;;;;;;;1999.90;999.90;;;;;;;;;;6214558;23;20751;-72
2023/04/08 08:40:57;;;;;;;1999.90;999.90;;;;;;;;;;6214209;23;20298;-70
2023/04/08 08:43:44;;;;;;;1999.90;999.90;;;;;;;;;;6214646;23;20257;-72
2023/04/08 08:46:28;;;;;;;1999.90;999.90;;;;;;;;;;6215071;23;20172;-72
2023/04/08 08:49:14;;;;;;;1999.90;999.90;;;;;;;;;;6214842;23;20497;-72
2023/04/08 08:51:59;;;;;;;1999.90;999.90;;;;;;;;;;6213736;23;20890;-72
2023/04/08 08:54:44;;;;;;;1999.90;999.90;;;;;;;;;;6215288;23;20184;-73
2023/04/08 08:57:29;;;;;;;1999.90;999.90;;;;;;;;;;6215314;23;20173;-71
2023/04/08 09:00:17;;;;;;;1999.90;999.90;;;;;;;;;;6215299;23;20172;-74
2023/04/08 09:03:18;;;;;;;1999.90;999.90;;;;;;;;;;6215019;23;20219;-75
2023/04/08 09:06:04;;;;;;;1999.90;999.90;;;;;;;;;;6215199;23;20176;-74
2023/04/08 09:08:49;;;;;;;1999.90;999.90;;;;;;;;;;6215145;23;20689;-75
2023/04/08 09:11:34;;;;;;;1999.90;999.90;;;;;;;;;;6215262;23;20212;-74
2023/04/08 09:14:19;;;;;;;1999.90;999.90;;;;;;;;;;6215129;23;20669;-74
2023/04/08 09:17:06;;;;;;;1999.90;999.90;;;;;;;;;;6214980;23;20172;-76
2023/04/08 09:20:05;;;;;;;1999.90;999.90;;;;;;;;;;6214816;23;20285;-75
2023/04/08 09:22:57;;;;;;;1999.90;999.90;;;;;;;;;;6214884;23;20304;-75
2023/04/08 09:25:42;;;;;;;1999.90;999.90;;;;;;;;;;6213210;23;20733;-75
2023/04/08 09:28:27;;;;;;;1999.90;999.90;;;;;;;;;;6214955;23;20168;-76
2023/04/08 09:31:21;;;;;;;1999.90;999.90;;;;;;;;;;6214735;23;20216;-75
2023/04/08 09:34:11;;;;;;;1999.90;999.90;;;;;;;;;;6214918;23;20503;-75
2023/04/08 09:36:56;;;;;;;1999.90;999.90;;;;;;;;;;6214059;23;20379;-75
2023/04/08 09:39:41;;;;;;;1999.90;999.90;;;;;;;;;;6214359;23;20169;-75
2023/04/08 09:42:26;;;;;;;1999.90;999.90;;;;;;;;;;6214465;23;20201;-76
2023/04/08 09:45:12;;;;;;;1999.90;999.90;;;;;;;;;;6214814;23;20548;-75
2023/04/08 09:48:01;;;;;;;1999.90;999.90;;;;;;;;;;6214292;23;20166;-74
2023/04/08 09:50:50;;;;;;;1999.90;999.90;;;;;;;;;;6213979;23;20216;-75
2023/04/08 09:53:36;;;;;;;1999.90;999.90;;;;;;;;;;6214669;23;20173;-75
2023/04/08 09:56:21;;;;;;;1999.90;999.90;;;;;;;;;;6213734;23;20172;-74
2023/04/08 09:59:09;;;;;;;1999.90;999.90;;;;;;;;;;6213994;23;20170;-73
2023/04/08 10:01:56;;;;;;;1999.90;999.90;;;;;;;;;;6213215;23;20713;-75
2023/04/08 10:04:43;;;;;;;1999.90;999.90;;;;;;;;;;6214794;23;20245;-73
2023/04/08 10:07:30;;;;;;;1999.90;999.90;;;;;;;;;;6214873;23;20170;-73
2023/04/08 10:10:15;;;;;;;1999.90;999.90;;;;;;;;;;6214737;23;20221;-74
2023/04/08 10:13:00;;;;;;;1999.90;999.90;;;;;;;;;;6214636;23;20173;-75
2023/04/08 10:15:46;;;;;;;1999.90;999.90;;;;;;;;;;6213644;23;20518;-74
2023/04/08 10:18:35;;;;;;;1999.90;999.90;;;;;;;;;;6214793;23;20184;-74
2023/04/08 10:21:33;;;;;;;1999.90;999.90;;;;;;;;;;6215255;23;20200;-74
2023/04/08 10:24:24;;;;;;;1999.90;999.90;;;;;;;;;;6214729;23;20168;-74
2023/04/08 10:27:25;;;;;;;1999.90;999.90;;;;;;;;;;6214821;23;20284;-75
2023/04/08 10:30:25;;;;;;;1999.90;999.90;;;;;;;;;;6214577;23;20213;-74
2023/04/08 10:33:11;;;;;;;1999.90;999.90;;;;;;;;;;6214416;23;20262;-74
2023/04/08 10:36:01;;;;;;;1999.90;999.90;;;;;;;;;;6214884;23;20261;-74
2023/04/08 10:38:46;;;;;;;1999.90;999.90;;;;;;;;;;6214485;23;20167;-73
2023/04/08 10:41:33;;;;;;;1999.90;999.90;;;;;;;;;;6214247;23;20204;-73
2023/04/08 10:44:18;;;;;;;1999.90;999.90;;;;;;;;;;6214542;23;20231;-74
2023/04/08 10:47:03;;;;;;;1999.90;999.90;;;;;;;;;;6214287;23;20176;-74
2023/04/08 10:49:48;;;;;;;1999.90;999.90;;;;;;;;;;6214310;23;20196;-75
2023/04/08 10:52:33;;;;;;;1999.90;999.90;;;;;;;;;;6213980;23;20204;-74
2023/04/08 10:55:23;;;;;;;1999.90;999.90;;;;;;;;;;6214425;23;20269;-73
2023/04/08 10:58:11;;;;;;;1999.90;999.90;;;;;;;;;;6213629;23;20426;-73
2023/04/08 11:00:56;;;;;;;1999.90;999.90;;;;;;;;;;6214102;23;20689;-72
2023/04/08 11:03:42;;;;;;;1999.90;999.90;;;;;;;;;;6213991;23;20601;-74
2023/04/08 11:06:27;;;;;;;1999.90;999.90;;;;;;;;;;6214714;23;20510;-74
2023/04/08 11:09:12;;;;;;;1999.90;999.90;;;;;;;;;;6214251;23;20177;-73
2023/04/08 11:11:57;;;;;;;1999.90;999.90;;;;;;;;;;6213844;23;20204;-75
2023/04/08 11:14:43;;;;;;;1999.90;999.90;;;;;;;;;;6214099;23;20173;-73
2023/04/08 11:17:29;;;;;;;1999.90;999.90;;;;;;;;;;6212883;23;20681;-73
2023/04/08 11:20:14;;;;;;;1999.90;999.90;;;;;;;;;;6213634;23;20215;-73
2023/04/08 11:22:59;;;;;;;1999.90;999.90;;;;;;;;;;6213719;23;20166;-73
2023/04/08 11:25:45;;;;;;;1999.90;999.90;;;;;;;;;;6213856;23;20673;-74
2023/04/08 11:28:31;;;;;;;1999.90;999.90;;;;;;;;;;6212704;23;20512;-74
2023/04/08 11:31:18;;;;;;;1999.90;999.90;;;;;;;;;;6213649;23;20200;-74
2023/04/08 11:34:03;;;;;;;1999.90;999.90;;;;;;;;;;6213931;23;20260;-75
2023/04/08 11:36:48;;;;;;;1999.90;999.90;;;;;;;;;;6213775;23;20173;-76
2023/04/08 11:39:33;;;;;;;1999.90;999.90;;;;;;;;;;6213725;23;20181;-72
2023/04/08 11:42:27;;;;;;;1999.90;999.90;;;;;;;;;;6213246;23;20212;-73
2023/04/08 11:45:13;;;;;;;1999.90;999.90;;;;;;;;;;6213791;23;20172;-75
2023/04/08 11:48:00;;;;;;;1999.90;999.90;;;;;;;;;;6213501;23;20213;-70
2023/04/08 11:50:45;;;;;;;1999.90;999.90;;;;;;;;;;6213744;23;20202;-73
2023/04/08 11:53:30;;;;;;;1999.90;999.90;;;;;;;;;;6211206;23;20370;-73
2023/04/08 11:56:16;;;;;;;1999.90;999.90;;;;;;;;;;6212217;23;20246;-73
2023/04/08 11:59:01;;;;;;;1999.90;999.90;;;;;;;;;;6212704;23;20185;-72
2023/04/08 12:01:46;;;;;;;1999.90;999.90;;;;;;;;;;6212321;23;20689;-74
2023/04/08 12:04:32;;;;;;;1999.90;999.90;;;;;;;;;;6213454;23;20220;-74
2023/04/08 12:07:17;;;;;;;1999.90;999.90;;;;;;;;;;6213499;23;20166;-72
2023/04/08 12:10:02;;;;;;;1999.90;999.90;;;;;;;;;;6213323;23;20170;-72
2023/04/08 12:12:47;;;;;;;1999.90;999.90;;;;;;;;;;6213131;23;20189;-71
2023/04/08 12:15:32;;;;;;;1999.90;999.90;;;;;;;;;;6213662;23;20216;-73
2023/04/08 12:18:17;;;;;;;1999.90;999.90;;;;;;;;;;6211895;23;20169;-73
2023/04/08 12:21:04;;;;;;;1999.90;999.90;;;;;;;;;;6212696;23;20260;-72
2023/04/08 12:23:49;;;;;;;1999.90;999.90;;;;;;;;;;6213593;23;20170;-73
2023/04/08 12:26:34;;;;;;;1999.90;999.90;;;;;;;;;;6212731;23;20194;-74
2023/04/08 12:29:19;;;;;;;1999.90;999.90;;;;;;;;;;6213622;23;20553;-73
2023/04/08 12:32:04;;;;;;;1999.90;999.90;;;;;;;;;;6213302;23;20205;-73
2023/04/08 12:34:49;;;;;;;1999.90;999.90;;;;;;;;;;6212656;23;20169;-73
2023/04/08 12:37:36;;;;;;;1999.90;999.90;;;;;;;;;;6213568;23;20213;-73
2023/04/08 12:40:21;;;;;;;1999.90;999.90;;;;;;;;;;6213050;23;20169;-73
2023/04/08 12:43:06;;;;;;;1999.90;999.90;;;;;;;;;;6212916;23;20237;-73
2023/04/08 12:45:51;;;;;;;1999.90;999.90;;;;;;;;;;6213657;23;20780;-74
2023/04/08 12:48:36;;;;;;;1999.90;999.90;;;;;;;;;;6213094;23;20170;-72
2023/04/08 12:51:21;;;;;;;1999.90;999.90;;;;;;;;;;6212966;23;20543;-71
2023/04/08 12:54:07;;;;;;;1999.90;999.90;;;;;;;;;;6212503;23;20166;-71
2023/04/08 12:56:53;;;;;;;1999.90;999.90;;;;;;;;;;6212004;23;20220;-72
2023/04/08 12:59:38;;;;;;;1999.90;999.90;;;;;;;;;;6213515;23;20256;-72
2023/04/08 13:02:25;;;;;;;1999.90;999.90;;;;;;;;;;6211351;23;20208;-72
2023/04/08 13:05:10;;;;;;;1999.90;999.90;;;;;;;;;;6213517;23;20220;-72
2023/04/08 13:07:55;;;;;;;1999.90;999.90;;;;;;;;;;6212917;23;20166;-70
2023/04/08 13:10:42;;;;;;;1999.90;999.90;;;;;;;;;;6213799;23;20305;-71
2023/04/08 13:13:27;;;;;;;1999.90;999.90;;;;;;;;;;6214456;23;20196;-71
2023/04/08 13:16:14;;;;;;;1999.90;999.90;;;;;;;;;;6214884;23;20169;-71
2023/04/08 13:18:59;;;;;;;1999.90;999.90;;;;;;;;;;6214474;23;20173;-71
2023/04/08 13:21:44;;;;;;;1999.90;999.90;;;;;;;;;;6214794;23;21009;-71
2023/04/08 13:24:29;;;;;;;1999.90;999.90;;;;;;;;;;6214923;23;20248;-75
2023/04/08 13:27:16;;;;;;;1999.90;999.90;;;;;;;;;;6214904;23;20165;-72
2023/04/08 13:30:01;;;;;;;1999.90;999.90;;;;;;;;;;6215371;23;20166;-72
2023/04/08 13:32:46;;;;;;;1999.90;999.90;;;;;;;;;;6214645;23;20194;-71
2023/04/08 13:35:31;;;;;;;1999.90;999.90;;;;;;;;;;6214924;23;20249;-72
2023/04/08 13:38:16;;;;;;;1999.90;999.90;;;;;;;;;;6213489;23;20166;-73
2023/04/08 13:41:01;;;;;;;1999.90;999.90;;;;;;;;;;6214395;23;20205;-72
2023/04/08 13:43:47;;;;;;;1999.90;999.90;;;;;;;;;;6214305;23;20241;-74
2023/04/08 13:46:32;;;;;;;1999.90;999.90;;;;;;;;;;6214945;23;20215;-75
2023/04/08 13:49:17;;;;;;;1999.90;999.90;;;;;;;;;;6214222;23;20860;-74
2023/04/08 13:52:02;;;;;;;1999.90;999.90;;;;;;;;;;6214295;23;20205;-73
2023/04/08 13:54:47;;;;;;;1999.90;999.90;;;;;;;;;;6214254;23;20509;-75
2023/04/08 13:57:31;;;;;;;1999.90;999.90;;;;;;;;;;6214969;23;20212;-73
2023/04/08 14:00:18;;;;;;;1999.90;999.90;;;;;;;;;;6214810;23;20229;-74
2023/04/08 14:03:03;;;;;;;1999.90;999.90;;;;;;;;;;6214401;23;20379;-74
2023/04/08 14:05:49;;;;;;;1999.90;999.90;;;;;;;;;;6214798;23;20169;-74
2023/04/08 14:08:34;;;;;;;1999.90;999.90;;;;;;;;;;6214653;23;20591;-75
2023/04/08 14:11:20;;;;;;;1999.90;999.90;;;;;;;;;;6214546;23;20252;-74
2023/04/08 14:14:05;;;;;;;1999.90;999.90;;;;;;;;;;6214686;23;20726;-74
2023/04/08 14:16:51;;;;;;;1999.90;999.90;;;;;;;;;;6214771;23;20217;-74
2023/04/08 14:19:36;;;;;;;1999.90;999.90;;;;;;;;;;6214564;23;20843;-74
2023/04/08 14:22:21;;;;;;;1999.90;999.90;;;;;;;;;;6214283;23;20305;-75
2023/04/08 14:25:06;;;;;;;1999.90;999.90;;;;;;;;;;6214572;23;20170;-75
2023/04/08 14:27:51;;;;;;;1999.90;999.90;;;;;;;;;;6214450;23;20250;-75
2023/04/08 14:30:36;;;;;;;1999.90;999.90;;;;;;;;;;6213884;23;20166;-75
2023/04/08 14:33:23;;;;;;;1999.90;999.90;;;;;;;;;;6213673;23;20272;-75
2023/04/08 14:36:07;;;;;;;1999.90;999.90;;;;;;;;;;6212813;23;20374;-75
2023/04/08 14:38:52;;;;;;;1999.90;999.90;;;;;;;;;;6213668;23;20189;-75
2023/04/08 14:41:37;;;;;;;1999.90;999.90;;;;;;;;;;6213969;23;20217;-73
2023/04/08 14:44:22;;;;;;;1999.90;999.90;;;;;;;;;;6214229;23;20170;-73
2023/04/08 14:47:07;;;;;;;1999.90;999.90;;;;;;;;;;6214338;23;20259;-73
2023/04/08 14:49:54;;;;;;;1999.90;999.90;;;;;;;;;;6212592;23;20502;-72
2023/04/08 14:52:38;;;;;;;1999.90;999.90;;;;;;;;;;6213918;23;20201;-73
2023/04/08 14:55:24;;;;;;;1999.90;999.90;;;;;;;;;;6214028;23;20278;-73
2023/04/08 14:58:09;;;;;;;1999.90;999.90;;;;;;;;;;6214253;23;20166;-73
2023/04/08 15:00:54;;;;;;;1999.90;999.90;;;;;;;;;;6214232;23;20291;-73
2023/04/08 15:03:39;;;;;;;1999.90;999.90;;;;;;;;;;6213955;23;20177;-73
2023/04/08 15:06:26;;;;;;;1999.90;999.90;;;;;;;;;;6214317;23;20602;-73
2023/04/08 15:09:11;;;;;;;1999.90;999.90;;;;;;;;;;6214646;23;20169;-74
2023/04/08 15:11:57;;;;;;;1999.90;999.90;;;;;;;;;;6213814;23;20201;-73
2023/04/08 15:14:41;;;;;;;1999.90;999.90;;;;;;;;;;6214269;23;20166;-72
2023/04/08 15:17:26;;;;;;;1999.90;999.90;;;;;;;;;;6214039;23;20169;-73
2023/04/08 15:20:12;;;;;;;1999.90;999.90;;;;;;;;;;6214169;23;20185;-72
2023/04/08 15:22:58;;;;;;;1999.90;999.90;;;;;;;;;;6213802;23;20286;-73
2023/04/08 15:25:43;;;;;;;1999.90;999.90;;;;;;;;;;6214039;23;20172;-73
2023/04/08 15:28:29;;;;;;;1999.90;999.90;;;;;;;;;;6213851;23;20213;-72
2023/04/08 15:31:13;;;;;;;1999.90;999.90;;;;;;;;;;6213921;23;20249;-73
2023/04/08 15:33:58;;;;;;;1999.90;999.90;;;;;;;;;;6212771;23;20720;-73
2023/04/08 15:36:44;;;;;;;1999.90;999.90;;;;;;;;;;6214015;23;20251;-73
2023/04/08 15:39:30;;;;;;;1999.90;999.90;;;;;;;;;;6213439;23;20621;-73
2023/04/08 15:42:15;;;;;;;1999.90;999.90;;;;;;;;;;6213730;23;20764;-72
2023/04/08 15:45:00;;;;;;;1999.90;999.90;;;;;;;;;;6213911;23;20165;-72
2023/04/08 15:47:45;;;;;;;1999.90;999.90;;;;;;;;;;6213888;23;20169;-71
2023/04/08 15:50:30;;;;;;;1999.90;999.90;;;;;;;;;;6213791;23;20166;-72
2023/04/08 15:53:15;;;;;;;1999.90;999.90;;;;;;;;;;6213454;23;20244;-72
2023/04/08 15:56:02;;;;;;;1999.90;999.90;;;;;;;;;;6213852;23;20252;-72
2023/04/08 15:58:47;;;;;;;1999.90;999.90;;;;;;;;;;6213763;23;20217;-73
2023/04/08 16:01:32;;;;;;;1999.90;999.90;;;;;;;;;;6213336;23;20537;-72
2023/04/08 16:04:17;;;;;;;1999.90;999.90;;;;;;;;;;6213800;23;20161;-71
2023/04/08 16:07:03;;;;;;;1999.90;999.90;;;;;;;;;;6213852;23;20230;-75
2023/04/08 16:09:47;;;;;;;1999.90;999.90;;;;;;;;;;6213683;23;20165;-74
2023/04/08 16:12:34;;;;;;;1999.90;999.90;;;;;;;;;;6213436;23;20205;-71
2023/04/08 16:15:19;;;;;;;1999.90;999.90;;;;;;;;;;6213732;23;20165;-73
2023/04/08 16:18:05;;;;;;;1999.90;999.90;;;;;;;;;;6213605;23;20170;-74
2023/04/08 16:20:50;;;;;;;1999.90;999.90;;;;;;;;;;6213287;23;20402;-73
2023/04/08 16:23:36;;;;;;;1999.90;999.90;;;;;;;;;;6213529;23;20244;-73
2023/04/08 16:26:22;;;;;;;1999.90;999.90;;;;;;;;;;6213754;23;20168;-74
2023/04/08 16:29:09;;;;;;;1999.90;999.90;;;;;;;;;;6213602;23;20195;-71
2023/04/08 16:31:54;;;;;;;1999.90;999.90;;;;;;;;;;6213427;23;20221;-75
2023/04/08 16:34:39;;;;;;;1999.90;999.90;;;;;;;;;;6213674;23;20630;-74
2023/04/08 16:37:24;;;;;;;1999.90;999.90;;;;;;;;;;6213657;23;20515;-72
2023/04/08 16:40:10;;;;;;;1999.90;999.90;;;;;;;;;;6213472;23;20631;-73
2023/04/08 16:42:55;;;;;;;1999.90;999.90;;;;;;;;;;6213490;23;20162;-73
2023/04/08 16:45:41;;;;;;;1999.90;999.90;;;;;;;;;;6213879;23;20169;-74
2023/04/08 16:48:26;;;;;;;1999.90;999.90;;;;;;;;;;6215418;23;20166;-72
2023/04/08 16:51:11;;;;;;;1999.90;999.90;;;;;;;;;;6214340;23;20276;-73
2023/04/08 16:53:56;;;;;;;1999.90;999.90;;;;;;;;;;6214216;23;20189;-73
2023/04/08 16:56:44;;;;;;;1999.90;999.90;;;;;;;;;;6214118;23;20213;-73
2023/04/08 16:59:29;;;;;;;1999.90;999.90;;;;;;;;;;6214491;23;20252;-73
2023/04/08 17:02:15;;;;;;;1999.90;999.90;;;;;;;;;;6214473;23;20543;-73
2023/04/08 17:05:00;;;;;;;1999.90;999.90;;;;;;;;;;6214486;23;20650;-72
2023/04/08 17:07:45;;;;;;;1999.90;999.90;;;;;;;;;;6214119;23;20361;-71
2023/04/08 17:10:30;;;;;;;1999.90;999.90;;;;;;;;;;6214813;23;20246;-72
2023/04/08 17:13:15;;;;;;;1999.90;999.90;;;;;;;;;;6214078;23;20193;-72
2023/04/08 17:16:00;;;;;;;1999.90;999.90;;;;;;;;;;6214763;23;20181;-73
2023/04/08 17:18:46;;;;;;;1999.90;999.90;;;;;;;;;;6214732;23;20291;-74
2023/04/08 17:21:31;;;;;;;1999.90;999.90;;;;;;;;;;6214334;23;20216;-72
2023/04/08 17:24:17;;;;;;;1999.90;999.90;;;;;;;;;;6215250;23;20161;-72
2023/04/08 17:27:02;;;;;;;1999.90;999.90;;;;;;;;;;6214743;23;20165;-74
2023/04/08 17:29:46;;;;;;;1999.90;999.90;;;;;;;;;;6214681;23;20246;-73
2023/04/08 17:32:31;;;;;;;1999.90;999.90;;;;;;;;;;6214734;23;20201;-72
2023/04/08 17:35:18;;;;;;;1999.90;999.90;;;;;;;;;;6214979;23;20246;-72
2023/04/08 17:38:03;;;;;;;1999.90;999.90;;;;;;;;;;6215074;23;20165;-73
2023/04/08 17:40:48;;;;;;;1999.90;999.90;;;;;;;;;;6214239;23;20305;-72
2023/04/08 17:43:33;;;;;;;1999.90;999.90;;;;;;;;;;6214054;23;20165;-74
2023/04/08 17:46:18;;;;;;;1999.90;999.90;;;;;;;;;;6214434;23;20217;-73
2023/04/08 17:49:03;;;;;;;1999.90;999.90;;;;;;;;;;6214423;23;20165;-73
2023/04/08 17:51:49;;;;;;;1999.90;999.90;;;;;;;;;;6214154;23;20201;-73
2023/04/08 17:54:34;;;;;;;1999.90;999.90;;;;;;;;;;6213536;23;20405;-73
2023/04/08 17:57:19;;;;;;;1999.90;999.90;;;;;;;;;;6214355;23;20181;-73
2023/04/08 18:00:05;;;;;;;1999.90;999.90;;;;;;;;;;6214167;23;20173;-73
2023/04/08 18:02:50;;;;;;;1999.90;999.90;;;;;;;;;;6213510;23;20181;-74
2023/04/08 18:05:35;;;;;;;1999.90;999.90;;;;;;;;;;6211814;23;20164;-72
2023/04/08 18:08:22;;;;;;;1999.90;999.90;;;;;;;;;;6213706;23;20626;-72
2023/04/08 18:11:07;;;;;;;1999.90;999.90;;;;;;;;;;6214644;23;20208;-73
2023/04/08 18:13:52;;;;;;;1999.90;999.90;;;;;;;;;;6214417;23;20189;-73
2023/04/08 18:16:37;;;;;;;1999.90;999.90;;;;;;;;;;6214689;23;20196;-73
2023/04/08 18:19:23;;;;;;;1999.90;999.90;;;;;;;;;;6214139;23;20633;-72
2023/04/08 18:22:08;;;;;;;1999.90;999.90;;;;;;;;;;6213067;23;20253;-73
2023/04/08 18:24:54;;;;;;;1999.90;999.90;;;;;;;;;;6214228;23;20244;-73
2023/04/08 18:27:39;;;;;;;1999.90;999.90;;;;;;;;;;6214120;23;20638;-73
2023/04/08 18:30:24;;;;;;;1999.90;999.90;;;;;;;;;;6213999;23;20252;-72
2023/04/08 18:33:09;;;;;;;1999.90;999.90;;;;;;;;;;6213724;23;20662;-72
2023/04/08 18:35:54;;;;;;;1999.90;999.90;;;;;;;;;;6213629;23;20579;-73
2023/04/08 18:38:39;;;;;;;1999.90;999.90;;;;;;;;;;6213599;23;20172;-72
2023/04/08 18:41:26;;;;;;;1999.90;999.90;;;;;;;;;;6212196;23;20383;-73
2023/04/08 18:44:11;;;;;;;1999.90;999.90;;;;;;;;;;6213195;23;20245;-72
2023/04/08 18:46:56;;;;;;;1999.90;999.90;;;;;;;;;;6214021;23;20189;-70
2023/04/08 18:49:41;;;;;;;1999.90;999.90;;;;;;;;;;6213789;23;20555;-73
2023/04/08 18:52:26;;;;;;;1999.90;999.90;;;;;;;;;;6213019;23;20208;-72
2023/04/08 18:55:11;;;;;;;1999.90;999.90;;;;;;;;;;6213492;23;20168;-70
2023/04/08 18:57:58;;;;;;;1999.90;999.90;;;;;;;;;;6214303;23;20172;-71
2023/04/08 19:00:43;;;;;;;1999.90;999.90;;;;;;;;;;6213535;23;20931;-72
2023/04/08 19:03:28;;;;;;;1999.90;999.90;;;;;;;;;;6213472;23;20248;-73
2023/04/08 19:06:16;;;;;;;1999.90;999.90;;;;;;;;;;6213419;23;20181;-73
2023/04/08 19:09:01;;;;;;;1999.90;999.90;;;;;;;;;;6212241;23;20621;-73
2023/04/08 19:11:47;;;;;;;1999.90;999.90;;;;;;;;;;6212396;23;20284;-73
2023/04/08 19:14:33;;;;;;;1999.90;999.90;;;;;;;;;;6213679;23;20212;-74
2023/04/08 19:17:18;;;;;;;1999.90;999.90;;;;;;;;;;6213333;23;20296;-73
2023/04/08 19:20:03;;;;;;;1999.90;999.90;;;;;;;;;;6213537;23;20211;-73
2023/04/08 19:22:49;;;;;;;1999.90;999.90;;;;;;;;;;6213419;23;20169;-72
2023/04/08 19:25:34;;;;;;;1999.90;999.90;;;;;;;;;;6213518;23;20165;-72